Time,TemperatureF,DewpointF,PressureIn,WindDirection,WindDirectionDegrees,WindSpeedMPH,WindSpeedGustMPH,Humidity,HourlyPrecipIn,Conditions,Clouds,dailyrainin,SoftwareType,DateUTC
2013-02-27 00:00:00,45.2,32.5,29.87,West,280,0.0,0.0,61,0.00,,,0.00,Wunderground v.1.15,2013-02-27 06:00:00,
2013-02-27 00:05:00,45.0,31.9,29.87,West,280,0.0,0.0,60,0.00,,,0.00,Wunderground v.1.15,2013-02-27 06:05:00,
2013-02-27 00:10:00,44.9,32.3,29.86,West,280,0.0,0.0,61,0.00,,,0.00,Wunderground v.1.15,2013-02-27 06:10:00,
2013-02-27 00:20:00,44.1,31.1,29.86,West,280,0.0,0.0,60,0.00,,,0.00,Wunderground v.1.15,2013-02-27 06:20:00,
2013-02-27 00:30:00,43.7,30.7,29.87,West,280,0.0,0.0,60,0.00,,,0.00,Wunderground v.1.15,2013-02-27 06:30:00,
2013-02-27 00:35:00,43.4,30.4,29.86,West,280,0.0,0.0,60,0.00,,,0.00,Wunderground v.1.15,2013-02-27 06:35:00,
2013-02-27 00:40:00,43.2,29.8,29.86,West,280,0.0,0.0,59,0.00,,,0.00,Wunderground v.1.15,2013-02-27 06:40:00,
2013-02-27 00:50:00,42.6,29.3,29.87,West,280,0.0,0.0,59,0.00,,,0.00,Wunderground v.1.15,2013-02-27 06:50:00,
2013-02-27 00:59:00,42.0,28.3,29.87,West,280,0.0,0.0,58,0.00,,,0.00,Wunderground v.1.15,2013-02-27 06:59:00,
2013-02-27 01:10:00,41.5,27.4,29.87,West,280,0.0,0.0,57,0.00,,,0.00,Wunderground v.1.15,2013-02-27 07:10:00,
2013-02-27 01:20:00,41.1,27.0,29.87,West,280,0.0,0.0,57,0.00,,,0.00,Wunderground v.1.15,2013-02-27 07:20:00,
2013-02-27 01:30:00,40.8,26.7,29.87,West,280,0.0,0.0,57,0.00,,,0.00,Wunderground v.1.15,2013-02-27 07:30:00,
2013-02-27 01:39:00,40.5,26.0,29.87,West,280,0.0,0.0,56,0.00,,,0.00,Wunderground v.1.15,2013-02-27 07:39:00,
2013-02-27 01:45:00,40.4,25.5,29.86,West,280,0.0,0.0,55,0.00,,,0.00,Wunderground v.1.15,2013-02-27 07:45:00,
2013-02-27 01:55:00,40.2,24.9,29.87,West,280,0.0,0.0,54,0.00,,,0.00,Wunderground v.1.15,2013-02-27 07:55:00,
2013-02-27 02:00:00,40.1,24.8,29.87,West,280,0.0,0.0,54,0.00,,,0.00,Wunderground v.1.15,2013-02-27 08:00:00,
2013-02-27 02:05:00,40.0,24.7,29.86,West,280,0.0,0.0,54,0.00,,,0.00,Wunderground v.1.15,2013-02-27 08:05:00,
2013-02-27 02:10:00,39.9,24.6,29.86,West,280,0.0,0.0,54,0.00,,,0.00,Wunderground v.1.15,2013-02-27 08:10:00,
2013-02-27 02:20:00,39.7,24.0,29.87,West,280,0.0,0.0,53,0.00,,,0.00,Wunderground v.1.15,2013-02-27 08:20:00,
2013-02-27 02:25:00,39.8,24.0,29.86,West,280,0.0,0.0,53,0.00,,,0.00,Wunderground v.1.15,2013-02-27 08:25:00,
2013-02-27 02:30:00,39.8,24.0,29.86,West,280,0.0,0.0,53,0.00,,,0.00,Wunderground v.1.15,2013-02-27 08:30:00,
2013-02-27 02:39:00,39.7,24.0,29.86,West,280,0.0,0.0,53,0.00,,,0.00,Wunderground v.1.15,2013-02-27 08:39:00,
2013-02-27 02:49:00,39.6,23.9,29.86,West,280,0.0,0.0,53,0.00,,,0.00,Wunderground v.1.15,2013-02-27 08:49:00,
2013-02-27 02:55:00,39.5,23.8,29.86,West,280,0.0,0.0,53,0.00,,,0.00,Wunderground v.1.15,2013-02-27 08:55:00,
2013-02-27 03:00:00,39.5,23.8,29.86,West,280,0.0,0.0,53,0.00,,,0.00,Wunderground v.1.15,2013-02-27 09:00:00,
2013-02-27 03:05:00,39.4,23.7,29.85,West,280,0.0,0.0,53,0.00,,,0.00,Wunderground v.1.15,2013-02-27 09:05:00,
2013-02-27 03:10:00,39.4,23.7,29.86,West,280,0.0,0.0,53,0.00,,,0.00,Wunderground v.1.15,2013-02-27 09:10:00,
2013-02-27 03:20:00,39.2,23.5,29.86,West,280,0.0,0.0,53,0.00,,,0.00,Wunderground v.1.15,2013-02-27 09:20:00,
2013-02-27 03:30:00,38.9,23.2,29.86,West,280,0.0,0.0,53,0.00,,,0.00,Wunderground v.1.15,2013-02-27 09:30:00,
2013-02-27 03:35:00,38.8,23.1,29.86,West,280,0.0,0.0,53,0.00,,,0.00,Wunderground v.1.15,2013-02-27 09:35:00,
2013-02-27 03:40:00,38.7,22.6,29.86,West,280,0.0,0.0,52,0.00,,,0.00,Wunderground v.1.15,2013-02-27 09:40:00,
2013-02-27 03:50:00,38.6,22.5,29.86,West,280,0.0,0.0,52,0.00,,,0.00,Wunderground v.1.15,2013-02-27 09:50:00,
2013-02-27 03:59:00,38.5,22.4,29.86,West,280,0.0,0.0,52,0.00,,,0.00,Wunderground v.1.15,2013-02-27 09:59:00,
2013-02-27 04:05:00,38.5,22.4,29.86,West,280,0.0,0.0,52,0.00,,,0.00,Wunderground v.1.15,2013-02-27 10:05:00,
2013-02-27 04:10:00,38.5,22.4,29.86,West,280,0.0,0.0,52,0.00,,,0.00,Wunderground v.1.15,2013-02-27 10:10:00,
2013-02-27 04:20:00,38.5,21.9,29.86,West,280,0.0,0.0,51,0.00,,,0.00,Wunderground v.1.15,2013-02-27 10:20:00,
2013-02-27 04:25:00,38.5,21.9,29.86,West,280,0.0,0.0,51,0.00,,,0.00,Wunderground v.1.15,2013-02-27 10:25:00,
2013-02-27 04:30:00,38.5,21.9,29.87,West,280,0.0,0.0,51,0.00,,,0.00,Wunderground v.1.15,2013-02-27 10:30:00,
2013-02-27 04:35:00,38.5,21.9,29.87,West,280,0.0,0.0,51,0.00,,,0.00,Wunderground v.1.15,2013-02-27 10:35:00,
2013-02-27 04:45:00,38.4,21.8,29.87,West,280,0.0,0.0,51,0.00,,,0.00,Wunderground v.1.15,2013-02-27 10:45:00,
2013-02-27 04:50:00,38.4,21.8,29.87,West,280,0.0,0.0,51,0.00,,,0.00,Wunderground v.1.15,2013-02-27 10:50:00,
2013-02-27 05:00:00,38.3,21.7,29.86,West,280,0.0,0.0,51,0.00,,,0.00,Wunderground v.1.15,2013-02-27 11:00:00,
2013-02-27 05:09:00,38.2,21.6,29.86,West,280,0.0,0.0,51,0.00,,,0.00,Wunderground v.1.15,2013-02-27 11:09:00,
2013-02-27 05:14:00,38.2,21.6,29.87,West,280,0.0,0.0,51,0.00,,,0.00,Wunderground v.1.15,2013-02-27 11:14:00,
2013-02-27 05:20:00,38.1,21.5,29.87,West,280,0.0,0.0,51,0.00,,,0.00,Wunderground v.1.15,2013-02-27 11:20:00,
2013-02-27 05:30:00,38.0,21.5,29.87,West,280,0.0,0.0,51,0.00,,,0.00,Wunderground v.1.15,2013-02-27 11:30:00,
2013-02-27 05:40:00,37.9,21.4,29.88,West,280,0.0,0.0,51,0.00,,,0.00,Wunderground v.1.15,2013-02-27 11:40:00,
2013-02-27 05:45:00,37.8,21.3,29.88,West,280,0.0,0.0,51,0.00,,,0.00,Wunderground v.1.15,2013-02-27 11:45:00,
2013-02-27 05:50:00,37.8,21.3,29.88,West,280,0.0,0.0,51,0.00,,,0.00,Wunderground v.1.15,2013-02-27 11:50:00,
2013-02-27 05:55:00,37.7,21.2,29.88,West,280,0.0,0.0,51,0.00,,,0.00,Wunderground v.1.15,2013-02-27 11:55:00,
2013-02-27 06:04:00,37.6,21.1,29.89,West,280,0.0,0.0,51,0.00,,,0.00,Wunderground v.1.15,2013-02-27 12:04:00,
2013-02-27 06:09:00,37.5,21.0,29.89,West,280,0.0,0.0,51,0.00,,,0.00,Wunderground v.1.15,2013-02-27 12:09:00,
2013-02-27 06:19:00,37.3,20.8,29.89,West,280,0.0,0.0,51,0.00,,,0.00,Wunderground v.1.15,2013-02-27 12:19:00,
2013-02-27 06:25:00,37.2,20.7,29.90,West,280,0.0,0.0,51,0.00,,,0.00,Wunderground v.1.15,2013-02-27 12:25:00,
2013-02-27 06:30:00,37.1,20.6,29.90,West,280,0.0,0.0,51,0.00,,,0.00,Wunderground v.1.15,2013-02-27 12:30:00,
2013-02-27 06:40:00,37.1,20.2,29.90,West,280,0.0,0.0,50,0.00,,,0.00,Wunderground v.1.15,2013-02-27 12:40:00,
2013-02-27 06:45:00,37.1,20.2,29.90,West,280,0.0,0.0,50,0.00,,,0.00,Wunderground v.1.15,2013-02-27 12:45:00,
2013-02-27 06:50:00,37.0,20.1,29.91,West,280,0.0,0.0,50,0.00,,,0.00,Wunderground v.1.15,2013-02-27 12:50:00,
2013-02-27 07:00:00,37.3,20.3,29.91,West,280,0.0,0.0,50,0.00,,,0.00,Wunderground v.1.15,2013-02-27 13:00:00,
2013-02-27 07:04:00,37.6,20.1,29.91,West,280,0.0,0.0,49,0.00,,,0.00,Wunderground v.1.15,2013-02-27 13:04:00,
2013-02-27 07:09:00,37.9,20.4,29.91,West,280,0.0,0.0,49,0.00,,,0.00,Wunderground v.1.15,2013-02-27 13:09:00,
2013-02-27 07:19:00,38.4,20.4,29.92,West,280,0.0,0.0,48,0.00,,,0.00,Wunderground v.1.15,2013-02-27 13:19:00,
2013-02-27 07:25:00,38.7,20.7,29.92,West,280,0.0,0.0,48,0.00,,,0.00,Wunderground v.1.15,2013-02-27 13:25:00,
2013-02-27 07:30:00,38.9,20.9,29.92,West,280,0.0,0.0,48,0.00,,,0.00,Wunderground v.1.15,2013-02-27 13:30:00,
2013-02-27 07:35:00,39.1,21.0,29.92,West,280,0.0,0.0,48,0.00,,,0.00,Wunderground v.1.15,2013-02-27 13:35:00,
2013-02-27 07:40:00,39.3,21.2,29.92,West,280,0.0,0.0,48,0.00,,,0.00,Wunderground v.1.15,2013-02-27 13:40:00,
2013-02-27 07:50:00,39.9,21.8,29.93,West,280,0.0,0.0,48,0.00,,,0.00,Wunderground v.1.15,2013-02-27 13:50:00,
2013-02-27 08:00:00,41.0,22.3,29.94,West,280,0.0,0.0,47,0.00,,,0.00,Wunderground v.1.15,2013-02-27 14:00:00,
2013-02-27 08:09:00,42.7,23.3,29.95,West,280,0.0,0.0,46,0.00,,,0.00,Wunderground v.1.15,2013-02-27 14:09:00,
2013-02-27 08:15:00,43.6,23.6,29.95,West,280,0.0,0.0,45,0.00,,,0.00,Wunderground v.1.15,2013-02-27 14:15:00,
2013-02-27 08:20:00,44.4,24.4,29.95,West,280,0.0,0.0,45,0.00,,,0.00,Wunderground v.1.15,2013-02-27 14:20:00,
2013-02-27 08:25:00,45.0,26.5,29.95,West,280,0.0,0.0,48,0.00,,,0.00,Wunderground v.1.15,2013-02-27 14:25:00,
2013-02-27 08:30:00,47.0,32.1,29.95,West,280,0.0,0.0,56,0.00,,,0.00,Wunderground v.1.15,2013-02-27 14:30:00,
2013-02-27 08:35:00,49.0,35.7,29.96,West,280,0.0,0.0,60,0.00,,,0.00,Wunderground v.1.15,2013-02-27 14:35:00,
2013-02-27 08:40:00,50.9,39.5,29.96,West,280,0.0,0.0,65,0.00,,,0.00,Wunderground v.1.15,2013-02-27 14:40:00,
2013-02-27 08:50:00,52.5,41.9,29.97,West,280,0.0,0.0,67,0.00,,,0.00,Wunderground v.1.15,2013-02-27 14:50:00,
2013-02-27 09:00:00,54.0,43.3,29.96,West,280,0.0,0.0,67,0.00,,,0.00,Wunderground v.1.15,2013-02-27 15:00:00,
2013-02-27 09:05:00,54.9,44.1,29.96,West,280,0.0,0.0,67,0.00,,,0.00,Wunderground v.1.15,2013-02-27 15:05:00,
2013-02-27 09:10:00,55.5,44.3,29.96,West,280,0.0,1.0,66,0.00,,,0.00,Wunderground v.1.15,2013-02-27 15:10:00,
2013-02-27 09:20:00,57.0,45.3,29.96,West,280,1.0,1.0,65,0.00,,,0.00,Wunderground v.1.15,2013-02-27 15:20:00,
2013-02-27 09:29:00,59.0,46.8,29.96,SSW,208,1.0,1.0,64,0.00,,,0.00,Wunderground v.1.15,2013-02-27 15:29:00,
2013-02-27 09:34:00,59.9,47.7,29.96,SSW,208,1.0,1.0,64,0.00,,,0.00,Wunderground v.1.15,2013-02-27 15:34:00,
2013-02-27 09:39:00,60.6,47.9,29.96,SSW,208,0.0,0.0,63,0.00,,,0.00,Wunderground v.1.15,2013-02-27 15:39:00,
2013-02-27 09:45:00,61.4,48.7,29.96,SSW,208,0.0,0.0,63,0.00,,,0.00,Wunderground v.1.15,2013-02-27 15:45:00,
2013-02-27 09:50:00,62.1,49.8,29.97,SSW,207,0.0,0.0,64,0.00,,,0.00,Wunderground v.1.15,2013-02-27 15:50:00,
2013-02-27 09:55:00,62.8,50.0,29.97,SSW,209,0.0,0.0,63,0.00,,,0.00,Wunderground v.1.15,2013-02-27 15:55:00,
2013-02-27 10:00:00,63.3,50.1,29.96,SSW,212,0.0,0.0,62,0.00,,,0.00,Wunderground v.1.15,2013-02-27 16:00:00,
2013-02-27 10:05:00,63.5,50.2,29.96,SSW,211,0.0,0.0,62,0.00,,,0.00,Wunderground v.1.15,2013-02-27 16:05:00,
2013-02-27 10:15:00,64.3,50.6,29.96,SSW,205,0.0,0.0,61,0.00,,,0.00,Wunderground v.1.15,2013-02-27 16:15:00,
2013-02-27 10:20:00,64.8,50.6,29.96,SSW,200,0.0,3.0,60,0.00,,,0.00,Wunderground v.1.15,2013-02-27 16:20:00,
2013-02-27 10:29:00,65.5,49.9,29.95,SSE,163,1.0,2.0,57,0.00,,,0.00,Wunderground v.1.15,2013-02-27 16:29:00,
2013-02-27 10:39:00,67.4,49.2,29.94,SSE,164,1.0,3.0,52,0.00,,,0.00,Wunderground v.1.15,2013-02-27 16:39:00,
2013-02-27 10:45:00,67.0,48.8,29.94,SSE,155,2.0,3.0,52,0.00,,,0.00,Wunderground v.1.15,2013-02-27 16:45:00,
2013-02-27 10:50:00,67.4,49.2,29.94,South,188,3.0,3.0,52,0.00,,,0.00,Wunderground v.1.15,2013-02-27 16:50:00,
2013-02-27 11:00:00,68.3,50.0,29.93,SW,229,2.0,2.0,52,0.00,,,0.00,Wunderground v.1.15,2013-02-27 17:00:00,
2013-02-27 11:05:00,68.5,51.2,29.93,South,186,2.0,2.0,54,0.00,,,0.00,Wunderground v.1.15,2013-02-27 17:05:00,
2013-02-27 11:10:00,69.0,51.2,29.93,WSW,237,2.0,2.0,53,0.00,,,0.00,Wunderground v.1.15,2013-02-27 17:10:00,
2013-02-27 11:15:00,69.9,51.5,29.93,SSW,194,2.0,3.0,52,0.00,,,0.00,Wunderground v.1.15,2013-02-27 17:15:00,
2013-02-27 11:20:00,70.6,52.1,29.93,SSW,209,1.0,3.0,52,0.00,,,0.00,Wunderground v.1.15,2013-02-27 17:20:00,
2013-02-27 11:30:00,71.9,51.7,29.92,South,184,1.0,4.0,49,0.00,,,0.00,Wunderground v.1.15,2013-02-27 17:30:00,
2013-02-27 11:34:00,72.0,52.3,29.92,WSW,248,1.0,4.0,50,0.00,,,0.00,Wunderground v.1.15,2013-02-27 17:34:00,
2013-02-27 11:39:00,72.1,51.9,29.92,West,263,2.0,6.0,49,0.00,,,0.00,Wunderground v.1.15,2013-02-27 17:39:00,
2013-02-27 11:49:00,72.7,52.4,29.91,WNW,287,2.0,2.0,49,0.00,,,0.00,Wunderground v.1.15,2013-02-27 17:49:00,
2013-02-27 11:55:00,73.5,53.2,29.91,SW,234,2.0,4.0,49,0.00,,,0.00,Wunderground v.1.15,2013-02-27 17:55:00,
2013-02-27 12:00:00,73.5,52.6,29.91,WSW,253,3.0,3.0,48,0.00,,,0.00,Wunderground v.1.15,2013-02-27 18:00:00,
2013-02-27 12:05:00,74.0,53.6,29.91,SW,227,3.0,3.0,49,0.00,,,0.00,Wunderground v.1.15,2013-02-27 18:05:00,
2013-02-27 12:15:00,74.4,51.7,29.91,West,261,3.0,4.0,45,0.00,,,0.00,Wunderground v.1.15,2013-02-27 18:15:00,
2013-02-27 12:20:00,73.8,52.9,29.91,WSW,254,3.0,3.0,48,0.00,,,0.00,Wunderground v.1.15,2013-02-27 18:20:00,
2013-02-27 12:30:00,74.4,52.3,29.91,West,263,3.0,3.0,46,0.00,,,0.00,Wunderground v.1.15,2013-02-27 18:30:00,
2013-02-27 12:35:00,75.2,52.4,29.90,WSW,258,3.0,9.0,45,0.00,,,0.00,Wunderground v.1.15,2013-02-27 18:35:00,
2013-02-27 12:40:00,75.4,51.3,29.90,West,261,3.0,5.0,43,0.00,,,0.00,Wunderground v.1.15,2013-02-27 18:40:00,
2013-02-27 12:50:00,75.8,52.3,29.90,West,263,3.0,3.0,44,0.00,,,0.00,Wunderground v.1.15,2013-02-27 18:50:00,
2013-02-27 13:00:00,76.1,53.2,29.90,WNW,293,2.0,9.0,45,0.00,,,0.00,Wunderground v.1.15,2013-02-27 19:00:00,
2013-02-27 13:10:00,76.3,50.9,29.89,West,269,3.0,3.0,41,0.00,,,0.00,Wunderground v.1.15,2013-02-27 19:10:00,
2013-02-27 13:19:00,76.5,49.0,29.89,West,275,3.0,3.0,38,0.00,,,0.00,Wunderground v.1.15,2013-02-27 19:19:00,
2013-02-27 13:25:00,76.0,47.8,29.89,West,275,3.0,3.0,37,0.00,,,0.00,Wunderground v.1.15,2013-02-27 19:25:00,
2013-02-27 13:30:00,76.5,48.3,29.89,SW,230,3.0,4.0,37,0.00,,,0.00,Wunderground v.1.15,2013-02-27 19:30:00,
2013-02-27 13:40:00,77.0,44.9,29.89,West,259,3.0,3.0,32,0.00,,,0.00,Wunderground v.1.15,2013-02-27 19:40:00,
2013-02-27 13:50:00,77.6,42.8,29.89,WNW,301,3.0,6.0,29,0.00,,,0.00,Wunderground v.1.15,2013-02-27 19:50:00,
2013-02-27 14:00:00,76.5,42.7,29.90,WNW,292,3.0,3.0,30,0.00,,,0.00,Wunderground v.1.15,2013-02-27 20:00:00,
2013-02-27 14:10:00,77.4,43.5,29.90,WNW,302,2.0,2.0,30,0.00,,,0.00,Wunderground v.1.15,2013-02-27 20:10:00,
2013-02-27 14:20:00,76.7,42.9,29.91,WNW,292,3.0,3.0,30,0.00,,,0.00,Wunderground v.1.15,2013-02-27 20:20:00,
2013-02-27 14:29:00,76.0,41.4,29.91,WSW,246,2.0,2.0,29,0.00,,,0.00,Wunderground v.1.15,2013-02-27 20:29:00,
2013-02-27 14:34:00,75.2,38.9,29.91,WNW,302,2.0,2.0,27,0.00,,,0.00,Wunderground v.1.15,2013-02-27 20:34:00,
2013-02-27 14:39:00,75.3,38.0,29.91,WNW,292,1.0,1.0,26,0.00,,,0.00,Wunderground v.1.15,2013-02-27 20:39:00,
2013-02-27 14:49:00,74.2,36.1,29.91,WNW,294,2.0,2.0,25,0.00,,,0.00,Wunderground v.1.15,2013-02-27 20:49:00,
2013-02-27 14:55:00,74.2,39.0,29.91,WNW,296,2.0,5.0,28,0.00,,,0.00,Wunderground v.1.15,2013-02-27 20:55:00,
2013-02-27 15:05:00,73.3,39.1,29.91,SW,219,1.0,1.0,29,0.00,,,0.00,Wunderground v.1.15,2013-02-27 21:05:00,
2013-02-27 15:10:00,73.4,40.1,29.91,WNW,291,1.0,1.0,30,0.00,,,0.00,Wunderground v.1.15,2013-02-27 21:10:00,
2013-02-27 15:20:00,73.7,40.3,29.91,WNW,299,1.0,1.0,30,0.00,,,0.00,Wunderground v.1.15,2013-02-27 21:20:00,
2013-02-27 15:30:00,74.1,40.7,29.91,WNW,292,0.0,4.0,30,0.00,,,0.00,Wunderground v.1.15,2013-02-27 21:30:00,
2013-02-27 15:35:00,73.1,38.9,29.91,West,270,1.0,4.0,29,0.00,,,0.00,Wunderground v.1.15,2013-02-27 21:35:00,
2013-02-27 15:44:00,72.0,40.5,29.92,NW,321,2.0,3.0,32,0.00,,,0.00,Wunderground v.1.15,2013-02-27 21:44:00,
2013-02-27 15:49:00,72.0,41.3,29.92,North,360,2.0,4.0,33,0.00,,,0.00,Wunderground v.1.15,2013-02-27 21:49:00,
2013-02-27 15:55:00,71.7,41.8,29.92,WNW,302,2.0,4.0,34,0.00,,,0.00,Wunderground v.1.15,2013-02-27 21:55:00,
2013-02-27 16:00:00,71.2,42.1,29.92,WNW,296,2.0,2.0,35,0.00,,,0.00,Wunderground v.1.15,2013-02-27 22:00:00,
2013-02-27 16:05:00,70.6,43.1,29.93,NW,317,2.0,2.0,37,0.00,,,0.00,Wunderground v.1.15,2013-02-27 22:05:00,
2013-02-27 16:10:00,69.8,43.0,29.93,NW,304,2.0,2.0,38,0.00,,,0.00,Wunderground v.1.15,2013-02-27 22:10:00,
2013-02-27 16:20:00,68.0,41.4,29.93,WNW,298,2.0,2.0,38,0.00,,,0.00,Wunderground v.1.15,2013-02-27 22:20:00,
2013-02-27 16:30:00,67.0,40.5,29.93,WNW,296,2.0,2.0,38,0.00,,,0.00,Wunderground v.1.15,2013-02-27 22:30:00,
2013-02-27 16:40:00,65.9,39.6,29.93,WNW,290,2.0,5.0,38,0.00,,,0.00,Wunderground v.1.15,2013-02-27 22:40:00,
2013-02-27 16:49:00,65.5,39.9,29.93,NNW,338,1.0,2.0,39,0.00,,,0.00,Wunderground v.1.15,2013-02-27 22:49:00,
2013-02-27 16:59:00,64.9,39.3,29.94,NW,308,2.0,2.0,39,0.00,,,0.00,Wunderground v.1.15,2013-02-27 22:59:00,
2013-02-27 17:05:00,64.6,39.7,29.94,WNW,302,1.0,2.0,40,0.00,,,0.00,Wunderground v.1.15,2013-02-27 23:05:00,
2013-02-27 17:10:00,64.2,39.4,29.94,NW,305,1.0,1.0,40,0.00,,,0.00,Wunderground v.1.15,2013-02-27 23:10:00,
2013-02-27 17:15:00,63.9,39.1,29.94,NW,306,0.0,1.0,40,0.00,,,0.00,Wunderground v.1.15,2013-02-27 23:15:00,
2013-02-27 17:20:00,63.6,38.8,29.95,NW,307,0.0,0.0,40,0.00,,,0.00,Wunderground v.1.15,2013-02-27 23:20:00,
2013-02-27 17:30:00,63.1,37.7,29.95,WNW,295,1.0,2.0,39,0.00,,,0.00,Wunderground v.1.15,2013-02-27 23:30:00,
2013-02-27 17:35:00,62.8,38.1,29.95,NW,321,2.0,2.0,40,0.00,,,0.00,Wunderground v.1.15,2013-02-27 23:35:00,
2013-02-27 17:40:00,62.5,38.5,29.95,NNW,327,2.0,2.0,41,0.00,,,0.00,Wunderground v.1.15,2013-02-27 23:40:00,
2013-02-27 17:50:00,62.0,38.0,29.96,NW,323,0.0,0.0,41,0.00,,,0.00,Wunderground v.1.15,2013-02-27 23:50:00,
2013-02-27 18:00:00,61.3,38.6,29.96,NW,324,0.0,3.0,43,0.00,,,0.00,Wunderground v.1.15,2013-02-28 00:00:00,
2013-02-27 18:09:00,60.7,38.1,29.96,NW,306,1.0,1.0,43,0.00,,,0.00,Wunderground v.1.15,2013-02-28 00:09:00,
2013-02-27 18:14:00,60.4,38.4,29.97,NW,307,0.0,1.0,44,0.00,,,0.00,Wunderground v.1.15,2013-02-28 00:14:00,
2013-02-27 18:19:00,60.1,38.1,29.97,NW,307,0.0,0.0,44,0.00,,,0.00,Wunderground v.1.15,2013-02-28 00:19:00,
2013-02-27 18:30:00,59.3,37.4,29.97,NW,307,0.0,2.0,44,0.00,,,0.00,Wunderground v.1.15,2013-02-28 00:30:00,
2013-02-27 18:40:00,59.0,37.7,29.97,NW,309,0.0,0.0,45,0.00,,,0.00,Wunderground v.1.15,2013-02-28 00:40:00,
2013-02-27 18:50:00,58.5,37.2,29.98,NW,309,0.0,0.0,45,0.00,,,0.00,Wunderground v.1.15,2013-02-28 00:50:00,
2013-02-27 19:00:00,58.0,36.8,29.98,NW,309,0.0,0.0,45,0.00,,,0.00,Wunderground v.1.15,2013-02-28 01:00:00,
2013-02-27 19:05:00,57.8,36.6,29.99,NNW,330,1.0,1.0,45,0.00,,,0.00,Wunderground v.1.15,2013-02-28 01:05:00,
2013-02-27 19:14:00,57.5,36.3,30.00,NNW,337,0.0,1.0,45,0.00,,,0.00,Wunderground v.1.15,2013-02-28 01:14:00,
2013-02-27 19:19:00,57.2,36.6,30.00,NNW,337,0.0,0.0,46,0.00,,,0.00,Wunderground v.1.15,2013-02-28 01:19:00,
2013-02-27 19:29:00,56.6,36.6,30.01,NNW,337,0.0,0.0,47,0.00,,,0.00,Wunderground v.1.15,2013-02-28 01:29:00,
2013-02-27 19:35:00,56.3,36.3,30.00,NNW,337,0.0,0.0,47,0.00,,,0.00,Wunderground v.1.15,2013-02-28 01:35:00,
2013-02-27 19:40:00,56.0,36.6,30.01,NNW,336,0.0,0.0,48,0.00,,,0.00,Wunderground v.1.15,2013-02-28 01:40:00,
2013-02-27 19:50:00,55.5,36.1,30.02,NNW,336,0.0,0.0,48,0.00,,,0.00,Wunderground v.1.15,2013-02-28 01:50:00,
2013-02-27 20:00:00,54.9,36.1,30.02,NNW,336,0.0,0.0,49,0.00,,,0.00,Wunderground v.1.15,2013-02-28 02:00:00,
2013-02-27 20:05:00,54.6,35.8,30.01,NNW,336,0.0,0.0,49,0.00,,,0.00,Wunderground v.1.15,2013-02-28 02:05:00,
2013-02-27 20:10:00,54.4,35.6,30.02,NNW,336,0.0,0.0,49,0.00,,,0.00,Wunderground v.1.15,2013-02-28 02:10:00,
2013-02-27 20:20:00,53.9,34.6,30.03,NNW,336,0.0,0.0,48,0.00,,,0.00,Wunderground v.1.15,2013-02-28 02:20:00,
2013-02-27 20:29:00,53.6,33.8,30.03,NNW,336,0.0,0.0,47,0.00,,,0.00,Wunderground v.1.15,2013-02-28 02:29:00,
2013-02-27 20:35:00,53.5,33.7,30.03,NNW,336,0.0,0.0,47,0.00,,,0.00,Wunderground v.1.15,2013-02-28 02:35:00,
2013-02-27 20:40:00,53.3,33.6,30.03,NNW,336,0.0,0.0,47,0.00,,,0.00,Wunderground v.1.15,2013-02-28 02:40:00,
2013-02-27 20:50:00,52.9,33.7,30.03,NNW,336,0.0,0.0,48,0.00,,,0.00,Wunderground v.1.15,2013-02-28 02:50:00,
2013-02-27 21:00:00,52.6,32.9,30.04,NNW,336,0.0,0.0,47,0.00,,,0.00,Wunderground v.1.15,2013-02-28 03:00:00,
2013-02-27 21:05:00,52.4,32.7,30.04,NNW,336,0.0,0.0,47,0.00,,,0.00,Wunderground v.1.15,2013-02-28 03:05:00,
2013-02-27 21:10:00,52.3,32.6,30.04,NNW,336,0.0,0.0,47,0.00,,,0.00,Wunderground v.1.15,2013-02-28 03:10:00,
2013-02-27 21:20:00,51.7,32.6,30.05,NNW,336,0.0,0.0,48,0.00,,,0.00,Wunderground v.1.15,2013-02-28 03:20:00,
2013-02-27 21:30:00,51.1,33.1,30.05,NNW,336,0.0,0.0,50,0.00,,,0.00,Wunderground v.1.15,2013-02-28 03:30:00,
2013-02-27 21:35:00,50.6,33.6,30.05,NNW,336,0.0,0.0,52,0.00,,,0.00,Wunderground v.1.15,2013-02-28 03:35:00,
2013-02-27 21:40:00,50.2,33.2,30.05,NNW,336,0.0,0.0,52,0.00,,,0.00,Wunderground v.1.15,2013-02-28 03:40:00,
2013-02-27 21:50:00,49.7,33.2,30.06,NNW,336,0.0,0.0,53,0.00,,,0.00,Wunderground v.1.15,2013-02-28 03:50:00,
2013-02-27 21:59:00,49.3,32.9,30.06,NNW,336,0.0,0.0,53,0.00,,,0.00,Wunderground v.1.15,2013-02-28 03:59:00,
2013-02-27 22:05:00,49.2,32.8,30.06,NNW,336,0.0,0.0,53,0.00,,,0.00,Wunderground v.1.15,2013-02-28 04:05:00,
2013-02-27 22:10:00,49.0,32.6,30.06,NNW,336,0.0,0.0,53,0.00,,,0.00,Wunderground v.1.15,2013-02-28 04:10:00,
2013-02-27 22:20:00,48.7,32.8,30.06,NNW,336,0.0,0.0,54,0.00,,,0.00,Wunderground v.1.15,2013-02-28 04:20:00,
2013-02-27 22:25:00,48.6,32.7,30.07,NNW,336,0.0,0.0,54,0.00,,,0.00,Wunderground v.1.15,2013-02-28 04:25:00,
2013-02-27 22:30:00,48.4,32.5,30.07,NNW,336,0.0,0.0,54,0.00,,,0.00,Wunderground v.1.15,2013-02-28 04:30:00,
2013-02-27 22:40:00,48.1,32.7,30.07,NNW,336,0.0,0.0,55,0.00,,,0.00,Wunderground v.1.15,2013-02-28 04:40:00,
2013-02-27 22:50:00,47.9,32.0,30.07,NNW,336,0.0,0.0,54,0.00,,,0.00,Wunderground v.1.15,2013-02-28 04:50:00,
2013-02-27 23:00:00,47.6,32.2,30.08,NNW,336,0.0,0.0,55,0.00,,,0.00,Wunderground v.1.15,2013-02-28 05:00:00,
2013-02-27 23:04:00,47.4,31.6,30.08,NNW,336,0.0,0.0,54,0.00,,,0.00,Wunderground v.1.15,2013-02-28 05:04:00,
2013-02-27 23:09:00,47.2,31.8,30.08,NNW,336,0.0,0.0,55,0.00,,,0.00,Wunderground v.1.15,2013-02-28 05:09:00,
2013-02-27 23:14:00,47.0,31.7,30.08,NNW,336,0.0,0.0,55,0.00,,,0.00,Wunderground v.1.15,2013-02-28 05:14:00,
2013-02-27 23:20:00,46.8,32.4,30.08,NNW,336,0.0,0.0,57,0.00,,,0.00,Wunderground v.1.15,2013-02-28 05:20:00,
2013-02-27 23:30:00,46.3,31.4,30.07,NNW,336,0.0,0.0,56,0.00,,,0.00,Wunderground v.1.15,2013-02-28 05:30:00,
2013-02-27 23:35:00,46.1,32.1,30.07,NNW,336,0.0,0.0,58,0.00,,,0.00,Wunderground v.1.15,2013-02-28 05:35:00,
2013-02-27 23:40:00,45.8,31.9,30.06,NNW,336,0.0,0.0,58,0.00,,,0.00,Wunderground v.1.15,2013-02-28 05:40:00,
2013-02-27 23:50:00,45.2,32.1,30.06,NNW,336,0.0,0.0,60,0.00,,,0.00,Wunderground v.1.15,2013-02-28 05:50:00,